KWYS/WYS METAR and TAF weather

Enter ICAO airport designator
Station Type Date Time Source
KWYS METAR 2023/11/03 17:55 UTC NOAA

KWYS 031755Z AUTO 22013KT 10SM 03/03 A3022 RMK AO2


Station Type Date Time Source
KWYS Decoded METAR 2023/11/03 17:55 UTC NOAA

West Yellowstone, MT, United States (KWYS) 44-41N 111-07W
Nov 03, 2023 - 01:55 PM EDT / 2023.11.03 1755 UTC
Wind: from the SW (220 degrees) at 15 MPH (13 KT):0
Visibility: 10 mile(s):0
Temperature: 37 F (3 C)
Dew Point: 37 F (3 C)
Relative Humidity: 100%
Pressure (altimeter): 30.22 in. Hg (1023 hPa)
ob: KWYS 031755Z AUTO 22013KT 10SM 03/03 A3022 RMK AO2
cycle: 18

Station Type Date Time Source
KWYS TAF 2023/10/23 07:37 UTC NOAA